Aeroporto :
LOGIN :

Iscrizione | Disclaimer

   EN    FR    IT 

 










Sommario :    VFR   VFR Marginale   IFR   IFR Intensivo   IFR Molto Intensivo
Visibilità : 
Base nubi : 
>= 8 km
>= 3000ft
5 / 8 km
1000 / 3000 ft
1500m / 5 km
500 / 1000 ft
800 / 1500m
200 / 500 ft
< 800m
< 200 ft
Simboli :   Temporali  Nebbia  Neve Forte  Precipitazioni Forti  Vento > 20 kt
SIGMETs :   Varie  Temporali  Ghiacco  Turbolenza  Onda orograficha  Ceneri Vulcaniche






- Altitudine del aeroporto : 636 ft


LPBJ - Beja Air Base

ULTIMO METAR :
  • 250000Z 28008KT CAVOK 10/09 Q1026

METARs OBSOLETI :
  • 242300Z 28007KT CAVOK 11/09 Q1026
  • 242200Z 28005KT CAVOK 12/09 Q1026

TAF TAF LPBJ
Valido dal 25 a 00 ore il 26 a 00 ore UTC


242305Z 2500/2524 30005KT CAVOK
BECMG 2501/2503 5000 BCFG SCT005
PROB40 2502/2510 VRB02KT 0500 FG BKN002
BECMG 2509/2511 34008KT 9999 NSW SCT015 BKN025
PROB40 2517/2521 SCT008 BKN012



MetMap, La meteo Aeronautica in un colpo d'occhio ! - Copyright ORBIFLY Dicembre 2007 - Disclaimer

ORBIFLY MET'MAP TEAM :

Programmazione e sviluppo : Alexandra Zaïnal
Concezione : Baudouin d'Aumeries
Aiuto per la programmazione : Marc-Olivier Méhu
Supporto tecnico e logistico : Manuel Goepfert
Aiuto per la traduzione : Arnaldo La Scala

Contatto : metmap@orbifly.com




FONTI E CREDITI :

   NOAA